sensor_id;sensor_type;location;lat;lon;timestamp;P1;durP1;ratioP1;P2;durP2;ratioP2
18568;SDS011;14780;48.316;-1.050;2022-12-18T00:02:24;8.02;;;5.50;;
18568;SDS011;14780;48.316;-1.050;2022-12-18T00:05:09;7.03;;;5.05;;
18568;SDS011;14780;48.316;-1.050;2022-12-18T00:07:53;6.93;;;4.85;;
18568;SDS011;14780;48.316;-1.050;2022-12-18T00:10:38;6.18;;;4.55;;
18568;SDS011;14780;48.316;-1.050;2022-12-18T00:13:23;5.47;;;4.15;;
18568;SDS011;14780;48.316;-1.050;2022-12-18T00:16:18;5.40;;;4.32;;
18568;SDS011;14780;48.316;-1.050;2022-12-18T00:19:06;5.82;;;4.18;;
18568;SDS011;14780;48.316;-1.050;2022-12-18T00:21:53;6.53;;;4.50;;
18568;SDS011;14780;48.316;-1.050;2022-12-18T00:24:38;5.65;;;4.13;;
18568;SDS011;14780;48.316;-1.050;2022-12-18T00:27:22;5.88;;;3.97;;
18568;SDS011;14780;48.316;-1.050;2022-12-18T00:30:07;5.13;;;3.90;;
18568;SDS011;14780;48.316;-1.050;2022-12-18T00:32:53;7.90;;;4.45;;
18568;SDS011;14780;48.316;-1.050;2022-12-18T00:35:37;5.20;;;4.13;;
18568;SDS011;14780;48.316;-1.050;2022-12-18T00:38:23;4.88;;;3.90;;
18568;SDS011;14780;48.316;-1.050;2022-12-18T00:41:08;5.20;;;3.83;;
18568;SDS011;14780;48.316;-1.050;2022-12-18T00:43:54;5.05;;;4.15;;
18568;SDS011;14780;48.316;-1.050;2022-12-18T00:46:39;6.65;;;3.95;;
18568;SDS011;14780;48.316;-1.050;2022-12-18T00:49:24;6.13;;;4.40;;
18568;SDS011;14780;48.316;-1.050;2022-12-18T00:52:08;5.20;;;3.97;;
18568;SDS011;14780;48.316;-1.050;2022-12-18T00:54:53;5.47;;;4.00;;
18568;SDS011;14780;48.316;-1.050;2022-12-18T00:57:38;5.45;;;4.10;;
18568;SDS011;14780;48.316;-1.050;2022-12-18T01:00:23;5.25;;;3.95;;
18568;SDS011;14780;48.316;-1.050;2022-12-18T01:03:09;6.32;;;4.07;;
18568;SDS011;14780;48.316;-1.050;2022-12-18T01:05:56;5.45;;;4.00;;
18568;SDS011;14780;48.316;-1.050;2022-12-18T01:08:41;4.97;;;3.60;;
18568;SDS011;14780;48.316;-1.050;2022-12-18T01:11:26;5.85;;;3.85;;
18568;SDS011;14780;48.316;-1.050;2022-12-18T01:14:11;4.97;;;3.88;;
18568;SDS011;14780;48.316;-1.050;2022-12-18T01:16:55;5.40;;;3.80;;
18568;SDS011;14780;48.316;-1.050;2022-12-18T01:19:40;4.45;;;3.70;;
18568;SDS011;14780;48.316;-1.050;2022-12-18T01:22:25;4.20;;;3.80;;
18568;SDS011;14780;48.316;-1.050;2022-12-18T01:25:09;5.63;;;3.83;;
18568;SDS011;14780;48.316;-1.050;2022-12-18T01:27:54;4.70;;;3.53;;
18568;SDS011;14780;48.316;-1.050;2022-12-18T01:30:39;4.88;;;3.78;;
18568;SDS011;14780;48.316;-1.050;2022-12-18T01:33:23;5.35;;;3.72;;
18568;SDS011;14780;48.316;-1.050;2022-12-18T01:36:13;4.55;;;3.63;;
18568;SDS011;14780;48.316;-1.050;2022-12-18T01:39:04;5.10;;;3.92;;
18568;SDS011;14780;48.316;-1.050;2022-12-18T01:41:52;4.95;;;3.63;;
18568;SDS011;14780;48.316;-1.050;2022-12-18T01:47:52;5.75;;;3.97;;
18568;SDS011;14780;48.316;-1.050;2022-12-18T01:50:43;5.93;;;3.88;;
18568;SDS011;14780;48.316;-1.050;2022-12-18T01:53:28;5.30;;;3.80;;
18568;SDS011;14780;48.316;-1.050;2022-12-18T01:56:14;4.55;;;3.80;;
18568;SDS011;14780;48.316;-1.050;2022-12-18T01:59:02;4.47;;;3.70;;
18568;SDS011;14780;48.316;-1.050;2022-12-18T02:01:49;5.47;;;3.70;;
18568;SDS011;14780;48.316;-1.050;2022-12-18T02:04:34;5.30;;;3.67;;
18568;SDS011;14780;48.316;-1.050;2022-12-18T02:07:21;5.07;;;3.95;;
18568;SDS011;14780;48.316;-1.050;2022-12-18T02:16:24;5.35;;;4.28;;
18568;SDS011;14780;48.316;-1.050;2022-12-18T02:19:55;7.25;;;3.88;;
18568;SDS011;14780;48.316;-1.050;2022-12-18T02:28:19;4.53;;;3.37;;
18568;SDS011;14780;48.316;-1.050;2022-12-18T02:31:07;4.50;;;3.53;;
18568;SDS011;14780;48.316;-1.050;2022-12-18T02:33:58;5.80;;;4.07;;
18568;SDS011;14780;48.316;-1.050;2022-12-18T02:36:46;4.93;;;3.60;;
18568;SDS011;14780;48.316;-1.050;2022-12-18T02:39:33;5.45;;;4.18;;
18568;SDS011;14780;48.316;-1.050;2022-12-18T02:42:20;5.32;;;3.92;;
18568;SDS011;14780;48.316;-1.050;2022-12-18T02:45:06;5.28;;;4.13;;
18568;SDS011;14780;48.316;-1.050;2022-12-18T02:47:51;5.88;;;4.00;;
18568;SDS011;14780;48.316;-1.050;2022-12-18T02:50:38;4.88;;;3.88;;
18568;SDS011;14780;48.316;-1.050;2022-12-18T02:56:35;5.43;;;3.85;;
18568;SDS011;14780;48.316;-1.050;2022-12-18T02:59:38;4.85;;;3.53;;
18568;SDS011;14780;48.316;-1.050;2022-12-18T03:05:30;5.07;;;4.25;;
18568;SDS011;14780;48.316;-1.050;2022-12-18T03:08:24;4.85;;;3.70;;
18568;SDS011;14780;48.316;-1.050;2022-12-18T03:11:17;5.40;;;3.92;;
18568;SDS011;14780;48.316;-1.050;2022-12-18T03:14:22;5.35;;;4.30;;
18568;SDS011;14780;48.316;-1.050;2022-12-18T03:17:10;5.03;;;4.18;;
18568;SDS011;14780;48.316;-1.050;2022-12-18T03:20:05;5.13;;;3.95;;
18568;SDS011;14780;48.316;-1.050;2022-12-18T03:22:57;5.10;;;4.00;;
18568;SDS011;14780;48.316;-1.050;2022-12-18T03:25:56;5.00;;;3.90;;
18568;SDS011;14780;48.316;-1.050;2022-12-18T03:28:55;5.65;;;4.00;;
18568;SDS011;14780;48.316;-1.050;2022-12-18T03:31:48;5.18;;;4.07;;
18568;SDS011;14780;48.316;-1.050;2022-12-18T03:34:37;4.90;;;3.93;;
18568;SDS011;14780;48.316;-1.050;2022-12-18T03:37:24;5.43;;;4.25;;
18568;SDS011;14780;48.316;-1.050;2022-12-18T03:40:10;5.10;;;4.03;;
18568;SDS011;14780;48.316;-1.050;2022-12-18T03:43:00;5.43;;;3.92;;
18568;SDS011;14780;48.316;-1.050;2022-12-18T03:46:36;4.78;;;3.80;;
18568;SDS011;14780;48.316;-1.050;2022-12-18T03:49:11;4.90;;;3.90;;
18568;SDS011;14780;48.316;-1.050;2022-12-18T03:52:09;5.20;;;3.92;;
18568;SDS011;14780;48.316;-1.050;2022-12-18T03:55:08;5.15;;;3.85;;
18568;SDS011;14780;48.316;-1.050;2022-12-18T03:57:54;5.97;;;4.15;;
18568;SDS011;14780;48.316;-1.050;2022-12-18T04:00:40;4.95;;;4.20;;
18568;SDS011;14780;48.316;-1.050;2022-12-18T04:03:26;5.38;;;4.35;;
18568;SDS011;14780;48.316;-1.050;2022-12-18T04:06:14;5.10;;;3.95;;
18568;SDS011;14780;48.316;-1.050;2022-12-18T04:09:00;5.30;;;3.95;;
18568;SDS011;14780;48.316;-1.050;2022-12-18T04:11:45;5.18;;;3.90;;
18568;SDS011;14780;48.316;-1.050;2022-12-18T04:14:30;5.45;;;3.92;;
18568;SDS011;14780;48.316;-1.050;2022-12-18T04:17:19;5.28;;;4.13;;
18568;SDS011;14780;48.316;-1.050;2022-12-18T04:20:05;5.07;;;4.45;;
18568;SDS011;14780;48.316;-1.050;2022-12-18T04:22:50;5.13;;;4.22;;
18568;SDS011;14780;48.316;-1.050;2022-12-18T04:25:34;5.97;;;4.60;;
18568;SDS011;14780;48.316;-1.050;2022-12-18T04:28:19;5.40;;;4.40;;
18568;SDS011;14780;48.316;-1.050;2022-12-18T04:31:04;5.55;;;4.05;;
18568;SDS011;14780;48.316;-1.050;2022-12-18T04:33:49;5.60;;;4.40;;
18568;SDS011;14780;48.316;-1.050;2022-12-18T04:36:33;5.72;;;4.38;;
18568;SDS011;14780;48.316;-1.050;2022-12-18T04:39:18;4.95;;;4.18;;
18568;SDS011;14780;48.316;-1.050;2022-12-18T04:42:02;6.05;;;4.22;;
18568;SDS011;14780;48.316;-1.050;2022-12-18T04:44:47;5.35;;;4.10;;
18568;SDS011;14780;48.316;-1.050;2022-12-18T04:47:32;5.47;;;4.00;;
18568;SDS011;14780;48.316;-1.050;2022-12-18T04:50:16;4.82;;;4.00;;
18568;SDS011;14780;48.316;-1.050;2022-12-18T04:53:01;5.65;;;4.18;;
18568;SDS011;14780;48.316;-1.050;2022-12-18T04:55:46;6.18;;;4.35;;
18568;SDS011;14780;48.316;-1.050;2022-12-18T04:58:30;6.05;;;4.40;;
18568;SDS011;14780;48.316;-1.050;2022-12-18T05:01:16;5.82;;;4.28;;
18568;SDS011;14780;48.316;-1.050;2022-12-18T05:04:01;5.55;;;4.25;;
18568;SDS011;14780;48.316;-1.050;2022-12-18T05:06:47;5.63;;;4.20;;
18568;SDS011;14780;48.316;-1.050;2022-12-18T05:09:31;5.68;;;4.63;;
18568;SDS011;14780;48.316;-1.050;2022-12-18T05:12:16;5.63;;;4.38;;
18568;SDS011;14780;48.316;-1.050;2022-12-18T05:15:00;5.03;;;4.20;;
18568;SDS011;14780;48.316;-1.050;2022-12-18T05:17:45;5.20;;;4.13;;
18568;SDS011;14780;48.316;-1.050;2022-12-18T05:20:30;5.43;;;4.40;;
18568;SDS011;14780;48.316;-1.050;2022-12-18T05:23:15;5.30;;;4.03;;
18568;SDS011;14780;48.316;-1.050;2022-12-18T05:26:01;5.60;;;4.35;;
18568;SDS011;14780;48.316;-1.050;2022-12-18T05:28:48;5.45;;;4.30;;
18568;SDS011;14780;48.316;-1.050;2022-12-18T05:31:32;5.47;;;4.20;;
18568;SDS011;14780;48.316;-1.050;2022-12-18T05:34:17;5.35;;;4.22;;
18568;SDS011;14780;48.316;-1.050;2022-12-18T05:37:01;5.90;;;4.40;;
18568;SDS011;14780;48.316;-1.050;2022-12-18T05:39:46;5.32;;;4.13;;
18568;SDS011;14780;48.316;-1.050;2022-12-18T05:42:31;5.43;;;4.30;;
18568;SDS011;14780;48.316;-1.050;2022-12-18T05:45:15;6.10;;;4.35;;
18568;SDS011;14780;48.316;-1.050;2022-12-18T05:48:00;5.88;;;4.32;;
18568;SDS011;14780;48.316;-1.050;2022-12-18T05:50:46;5.60;;;4.30;;
18568;SDS011;14780;48.316;-1.050;2022-12-18T05:53:31;5.38;;;4.50;;
18568;SDS011;14780;48.316;-1.050;2022-12-18T05:56:18;5.38;;;4.18;;
18568;SDS011;14780;48.316;-1.050;2022-12-18T05:59:04;5.82;;;4.35;;
18568;SDS011;14780;48.316;-1.050;2022-12-18T06:01:49;5.10;;;3.97;;
18568;SDS011;14780;48.316;-1.050;2022-12-18T06:04:33;6.45;;;4.30;;
18568;SDS011;14780;48.316;-1.050;2022-12-18T06:07:18;5.80;;;4.38;;
18568;SDS011;14780;48.316;-1.050;2022-12-18T06:10:03;5.30;;;4.30;;
18568;SDS011;14780;48.316;-1.050;2022-12-18T06:12:48;5.45;;;4.13;;
18568;SDS011;14780;48.316;-1.050;2022-12-18T06:15:32;6.15;;;4.45;;
18568;SDS011;14780;48.316;-1.050;2022-12-18T06:18:20;5.80;;;4.13;;
18568;SDS011;14780;48.316;-1.050;2022-12-18T06:21:04;5.00;;;3.80;;
18568;SDS011;14780;48.316;-1.050;2022-12-18T06:23:50;5.20;;;4.20;;
18568;SDS011;14780;48.316;-1.050;2022-12-18T06:26:36;5.43;;;3.97;;
18568;SDS011;14780;48.316;-1.050;2022-12-18T06:29:22;5.72;;;4.07;;
18568;SDS011;14780;48.316;-1.050;2022-12-18T06:32:07;6.15;;;4.60;;
18568;SDS011;14780;48.316;-1.050;2022-12-18T06:34:51;5.80;;;4.60;;
18568;SDS011;14780;48.316;-1.050;2022-12-18T06:37:37;6.13;;;4.20;;
18568;SDS011;14780;48.316;-1.050;2022-12-18T06:40:22;5.60;;;4.10;;
18568;SDS011;14780;48.316;-1.050;2022-12-18T06:43:07;5.28;;;4.07;;
18568;SDS011;14780;48.316;-1.050;2022-12-18T06:45:57;6.32;;;4.78;;
18568;SDS011;14780;48.316;-1.050;2022-12-18T06:48:42;6.18;;;4.60;;
18568;SDS011;14780;48.316;-1.050;2022-12-18T06:51:30;7.20;;;4.45;;
18568;SDS011;14780;48.316;-1.050;2022-12-18T06:54:14;5.07;;;4.07;;
18568;SDS011;14780;48.316;-1.050;2022-12-18T06:56:59;5.65;;;4.25;;
18568;SDS011;14780;48.316;-1.050;2022-12-18T06:59:43;5.15;;;4.32;;
18568;SDS011;14780;48.316;-1.050;2022-12-18T07:02:28;5.60;;;4.50;;
18568;SDS011;14780;48.316;-1.050;2022-12-18T07:05:13;5.97;;;4.50;;
18568;SDS011;14780;48.316;-1.050;2022-12-18T07:07:57;5.15;;;4.03;;
18568;SDS011;14780;48.316;-1.050;2022-12-18T07:10:42;5.75;;;4.07;;
18568;SDS011;14780;48.316;-1.050;2022-12-18T07:13:27;6.60;;;4.43;;
18568;SDS011;14780;48.316;-1.050;2022-12-18T07:16:16;5.18;;;4.00;;
18568;SDS011;14780;48.316;-1.050;2022-12-18T07:19:02;5.45;;;4.40;;
18568;SDS011;14780;48.316;-1.050;2022-12-18T07:21:47;5.18;;;4.05;;
18568;SDS011;14780;48.316;-1.050;2022-12-18T07:24:33;5.25;;;4.32;;
18568;SDS011;14780;48.316;-1.050;2022-12-18T07:27:18;5.68;;;4.25;;
18568;SDS011;14780;48.316;-1.050;2022-12-18T07:30:03;5.32;;;4.32;;
18568;SDS011;14780;48.316;-1.050;2022-12-18T07:32:48;5.45;;;4.38;;
18568;SDS011;14780;48.316;-1.050;2022-12-18T07:35:33;5.78;;;4.35;;
18568;SDS011;14780;48.316;-1.050;2022-12-18T07:38:18;5.20;;;4.32;;
18568;SDS011;14780;48.316;-1.050;2022-12-18T07:41:03;5.05;;;3.90;;
18568;SDS011;14780;48.316;-1.050;2022-12-18T07:43:53;5.50;;;4.40;;
18568;SDS011;14780;48.316;-1.050;2022-12-18T07:46:37;5.25;;;4.20;;
18568;SDS011;14780;48.316;-1.050;2022-12-18T07:49:22;6.03;;;4.55;;
18568;SDS011;14780;48.316;-1.050;2022-12-18T07:52:07;5.78;;;4.63;;
18568;SDS011;14780;48.316;-1.050;2022-12-18T07:54:53;5.85;;;4.43;;
18568;SDS011;14780;48.316;-1.050;2022-12-18T07:57:37;5.97;;;4.50;;
18568;SDS011;14780;48.316;-1.050;2022-12-18T08:00:22;6.97;;;4.88;;
18568;SDS011;14780;48.316;-1.050;2022-12-18T08:03:10;7.88;;;4.90;;
18568;SDS011;14780;48.316;-1.050;2022-12-18T08:06:12;5.60;;;4.32;;
18568;SDS011;14780;48.316;-1.050;2022-12-18T08:08:57;6.22;;;4.63;;
18568;SDS011;14780;48.316;-1.050;2022-12-18T08:11:42;6.80;;;4.72;;
18568;SDS011;14780;48.316;-1.050;2022-12-18T08:14:28;6.03;;;4.72;;
18568;SDS011;14780;48.316;-1.050;2022-12-18T08:17:12;6.88;;;5.13;;
18568;SDS011;14780;48.316;-1.050;2022-12-18T08:19:57;6.57;;;4.88;;
18568;SDS011;14780;48.316;-1.050;2022-12-18T08:22:42;9.18;;;5.63;;
18568;SDS011;14780;48.316;-1.050;2022-12-18T08:25:26;8.68;;;6.78;;
18568;SDS011;14780;48.316;-1.050;2022-12-18T08:28:11;7.68;;;6.88;;
18568;SDS011;14780;48.316;-1.050;2022-12-18T08:30:55;8.52;;;6.97;;
18568;SDS011;14780;48.316;-1.050;2022-12-18T08:33:40;9.02;;;7.60;;
18568;SDS011;14780;48.316;-1.050;2022-12-18T08:36:26;8.20;;;6.97;;
18568;SDS011;14780;48.316;-1.050;2022-12-18T08:39:10;8.98;;;6.80;;
18568;SDS011;14780;48.316;-1.050;2022-12-18T08:41:55;9.07;;;7.55;;
18568;SDS011;14780;48.316;-1.050;2022-12-18T08:44:58;7.63;;;6.63;;
18568;SDS011;14780;48.316;-1.050;2022-12-18T08:47:43;7.47;;;6.35;;
18568;SDS011;14780;48.316;-1.050;2022-12-18T08:50:27;8.43;;;5.80;;
18568;SDS011;14780;48.316;-1.050;2022-12-18T08:53:12;7.57;;;6.05;;
18568;SDS011;14780;48.316;-1.050;2022-12-18T08:55:58;7.57;;;6.20;;
18568;SDS011;14780;48.316;-1.050;2022-12-18T08:58:43;7.75;;;5.43;;
18568;SDS011;14780;48.316;-1.050;2022-12-18T09:01:27;7.63;;;6.10;;
18568;SDS011;14780;48.316;-1.050;2022-12-18T09:04:15;8.23;;;6.13;;
18568;SDS011;14780;48.316;-1.050;2022-12-18T09:07:00;7.05;;;5.55;;
18568;SDS011;14780;48.316;-1.050;2022-12-18T09:09:45;7.00;;;5.32;;
18568;SDS011;14780;48.316;-1.050;2022-12-18T09:12:30;7.32;;;5.20;;
18568;SDS011;14780;48.316;-1.050;2022-12-18T09:15:15;8.80;;;5.90;;
18568;SDS011;14780;48.316;-1.050;2022-12-18T09:18:00;7.63;;;5.53;;
18568;SDS011;14780;48.316;-1.050;2022-12-18T09:20:45;7.22;;;5.32;;
18568;SDS011;14780;48.316;-1.050;2022-12-18T09:23:31;8.60;;;5.30;;
18568;SDS011;14780;48.316;-1.050;2022-12-18T09:26:15;7.35;;;5.30;;
18568;SDS011;14780;48.316;-1.050;2022-12-18T09:29:01;9.15;;;5.10;;
18568;SDS011;14780;48.316;-1.050;2022-12-18T09:31:47;7.20;;;5.10;;
18568;SDS011;14780;48.316;-1.050;2022-12-18T09:34:36;8.45;;;5.03;;
18568;SDS011;14780;48.316;-1.050;2022-12-18T09:37:20;6.22;;;4.75;;
18568;SDS011;14780;48.316;-1.050;2022-12-18T09:40:05;6.30;;;4.70;;
18568;SDS011;14780;48.316;-1.050;2022-12-18T09:42:57;7.47;;;4.78;;
18568;SDS011;14780;48.316;-1.050;2022-12-18T09:45:47;6.33;;;4.67;;
18568;SDS011;14780;48.316;-1.050;2022-12-18T09:48:42;6.45;;;4.85;;
18568;SDS011;14780;48.316;-1.050;2022-12-18T09:51:39;6.13;;;4.60;;
18568;SDS011;14780;48.316;-1.050;2022-12-18T09:54:36;6.40;;;4.60;;
18568;SDS011;14780;48.316;-1.050;2022-12-18T09:57:24;6.55;;;4.75;;
18568;SDS011;14780;48.316;-1.050;2022-12-18T10:00:16;7.07;;;4.40;;
18568;SDS011;14780;48.316;-1.050;2022-12-18T10:03:10;7.57;;;4.80;;
18568;SDS011;14780;48.316;-1.050;2022-12-18T10:11:47;5.53;;;4.25;;
18568;SDS011;14780;48.316;-1.050;2022-12-18T10:14:49;9.02;;;4.13;;
18568;SDS011;14780;48.316;-1.050;2022-12-18T10:17:56;7.03;;;4.78;;
18568;SDS011;14780;48.316;-1.050;2022-12-18T10:20:49;7.97;;;4.57;;
18568;SDS011;14780;48.316;-1.050;2022-12-18T10:27:15;5.68;;;4.07;;
18568;SDS011;14780;48.316;-1.050;2022-12-18T10:30:12;8.20;;;4.03;;
18568;SDS011;14780;48.316;-1.050;2022-12-18T10:33:02;7.93;;;4.32;;
18568;SDS011;14780;48.316;-1.050;2022-12-18T10:35:48;10.52;;;4.53;;
18568;SDS011;14780;48.316;-1.050;2022-12-18T10:38:34;5.63;;;4.00;;
18568;SDS011;14780;48.316;-1.050;2022-12-18T10:44:15;6.97;;;4.30;;
18568;SDS011;14780;48.316;-1.050;2022-12-18T10:47:03;7.63;;;4.20;;
18568;SDS011;14780;48.316;-1.050;2022-12-18T10:49:54;5.47;;;4.43;;
18568;SDS011;14780;48.316;-1.050;2022-12-18T10:52:40;5.78;;;4.18;;
18568;SDS011;14780;48.316;-1.050;2022-12-18T10:55:35;6.45;;;4.28;;
18568;SDS011;14780;48.316;-1.050;2022-12-18T11:01:16;5.85;;;4.15;;
18568;SDS011;14780;48.316;-1.050;2022-12-18T11:04:07;6.40;;;4.93;;
18568;SDS011;14780;48.316;-1.050;2022-12-18T11:09:45;7.95;;;5.30;;
18568;SDS011;14780;48.316;-1.050;2022-12-18T11:12:44;7.75;;;5.55;;
18568;SDS011;14780;48.316;-1.050;2022-12-18T11:15:30;9.88;;;5.55;;
18568;SDS011;14780;48.316;-1.050;2022-12-18T11:18:28;10.30;;;5.53;;
18568;SDS011;14780;48.316;-1.050;2022-12-18T11:21:17;8.23;;;5.18;;
18568;SDS011;14780;48.316;-1.050;2022-12-18T11:24:02;7.78;;;5.00;;
18568;SDS011;14780;48.316;-1.050;2022-12-18T11:26:47;8.05;;;5.60;;
18568;SDS011;14780;48.316;-1.050;2022-12-18T11:29:34;9.60;;;5.22;;
18568;SDS011;14780;48.316;-1.050;2022-12-18T11:32:27;7.35;;;5.50;;
18568;SDS011;14780;48.316;-1.050;2022-12-18T11:35:21;6.32;;;4.75;;
18568;SDS011;14780;48.316;-1.050;2022-12-18T11:38:39;6.03;;;4.65;;
18568;SDS011;14780;48.316;-1.050;2022-12-18T11:41:41;5.57;;;4.40;;
18568;SDS011;14780;48.316;-1.050;2022-12-18T11:47:58;6.50;;;5.22;;
18568;SDS011;14780;48.316;-1.050;2022-12-18T11:50:53;5.88;;;4.53;;
18568;SDS011;14780;48.316;-1.050;2022-12-18T11:53:39;6.07;;;4.45;;
18568;SDS011;14780;48.316;-1.050;2022-12-18T11:56:32;6.10;;;4.57;;
18568;SDS011;14780;48.316;-1.050;2022-12-18T11:59:33;5.75;;;4.68;;
18568;SDS011;14780;48.316;-1.050;2022-12-18T12:20:36;5.97;;;4.40;;
18568;SDS011;14780;48.316;-1.050;2022-12-18T12:39:16;5.63;;;4.38;;
18568;SDS011;14780;48.316;-1.050;2022-12-18T12:42:06;5.57;;;4.07;;
18568;SDS011;14780;48.316;-1.050;2022-12-18T12:45:33;6.03;;;3.75;;
18568;SDS011;14780;48.316;-1.050;2022-12-18T12:51:35;6.95;;;3.85;;
18568;SDS011;14780;48.316;-1.050;2022-12-18T12:54:24;6.47;;;4.25;;
18568;SDS011;14780;48.316;-1.050;2022-12-18T13:00:10;4.93;;;3.63;;
18568;SDS011;14780;48.316;-1.050;2022-12-18T13:16:06;12.48;;;5.90;;
18568;SDS011;14780;48.316;-1.050;2022-12-18T13:18:52;12.93;;;6.07;;
18568;SDS011;14780;48.316;-1.050;2022-12-18T13:21:40;13.82;;;6.75;;
18568;SDS011;14780;48.316;-1.050;2022-12-18T13:24:26;10.70;;;5.70;;
18568;SDS011;14780;48.316;-1.050;2022-12-18T13:39:10;6.75;;;4.18;;
18568;SDS011;14780;48.316;-1.050;2022-12-18T13:44:49;6.10;;;4.00;;
18568;SDS011;14780;48.316;-1.050;2022-12-18T13:47:34;11.00;;;3.97;;
18568;SDS011;14780;48.316;-1.050;2022-12-18T13:50:24;5.22;;;3.92;;
18568;SDS011;14780;48.316;-1.050;2022-12-18T13:53:20;7.03;;;3.70;;
18568;SDS011;14780;48.316;-1.050;2022-12-18T13:56:27;7.68;;;3.97;;
18568;SDS011;14780;48.316;-1.050;2022-12-18T14:02:13;7.20;;;3.70;;
18568;SDS011;14780;48.316;-1.050;2022-12-18T14:05:00;6.00;;;3.60;;
18568;SDS011;14780;48.316;-1.050;2022-12-18T14:07:45;5.35;;;3.92;;
18568;SDS011;14780;48.316;-1.050;2022-12-18T14:10:31;4.80;;;3.58;;
18568;SDS011;14780;48.316;-1.050;2022-12-18T14:13:32;5.30;;;3.60;;
18568;SDS011;14780;48.316;-1.050;2022-12-18T14:16:20;5.75;;;3.50;;
18568;SDS011;14780;48.316;-1.050;2022-12-18T14:19:08;5.15;;;3.40;;
18568;SDS011;14780;48.316;-1.050;2022-12-18T14:21:59;6.32;;;3.55;;
18568;SDS011;14780;48.316;-1.050;2022-12-18T14:24:44;4.15;;;3.13;;
18568;SDS011;14780;48.316;-1.050;2022-12-18T14:27:30;4.72;;;3.58;;
18568;SDS011;14780;48.316;-1.050;2022-12-18T14:33:11;5.43;;;3.40;;
18568;SDS011;14780;48.316;-1.050;2022-12-18T14:36:02;4.97;;;3.47;;
18568;SDS011;14780;48.316;-1.050;2022-12-18T14:38:53;5.00;;;3.47;;
18568;SDS011;14780;48.316;-1.050;2022-12-18T14:41:39;3.97;;;3.15;;
18568;SDS011;14780;48.316;-1.050;2022-12-18T14:44:24;5.80;;;3.25;;
18568;SDS011;14780;48.316;-1.050;2022-12-18T14:47:13;4.72;;;3.60;;
18568;SDS011;14780;48.316;-1.050;2022-12-18T14:50:01;6.85;;;3.83;;
18568;SDS011;14780;48.316;-1.050;2022-12-18T14:52:46;5.78;;;3.63;;
18568;SDS011;14780;48.316;-1.050;2022-12-18T14:55:31;4.65;;;3.38;;
18568;SDS011;14780;48.316;-1.050;2022-12-18T14:58:16;5.18;;;3.75;;
18568;SDS011;14780;48.316;-1.050;2022-12-18T15:01:02;4.00;;;3.03;;
18568;SDS011;14780;48.316;-1.050;2022-12-18T15:03:47;4.43;;;3.50;;
18568;SDS011;14780;48.316;-1.050;2022-12-18T15:06:36;6.65;;;3.33;;
18568;SDS011;14780;48.316;-1.050;2022-12-18T15:09:26;5.00;;;3.30;;
18568;SDS011;14780;48.316;-1.050;2022-12-18T15:12:31;5.28;;;3.42;;
18568;SDS011;14780;48.316;-1.050;2022-12-18T15:18:26;4.50;;;3.47;;
18568;SDS011;14780;48.316;-1.050;2022-12-18T15:21:18;4.90;;;3.38;;
18568;SDS011;14780;48.316;-1.050;2022-12-18T15:24:04;5.25;;;3.30;;
18568;SDS011;14780;48.316;-1.050;2022-12-18T15:27:00;5.10;;;3.35;;
18568;SDS011;14780;48.316;-1.050;2022-12-18T15:29:58;4.93;;;3.38;;
18568;SDS011;14780;48.316;-1.050;2022-12-18T15:33:16;6.40;;;3.50;;
18568;SDS011;14780;48.316;-1.050;2022-12-18T15:36:10;4.40;;;3.50;;
18568;SDS011;14780;48.316;-1.050;2022-12-18T15:38:56;4.65;;;3.42;;
18568;SDS011;14780;48.316;-1.050;2022-12-18T15:41:42;5.38;;;3.38;;
18568;SDS011;14780;48.316;-1.050;2022-12-18T15:44:47;5.50;;;3.15;;
18568;SDS011;14780;48.316;-1.050;2022-12-18T15:47:32;4.78;;;2.95;;
18568;SDS011;14780;48.316;-1.050;2022-12-18T15:50:17;5.18;;;3.42;;
18568;SDS011;14780;48.316;-1.050;2022-12-18T15:53:01;4.22;;;3.28;;
18568;SDS011;14780;48.316;-1.050;2022-12-18T15:55:46;3.80;;;2.92;;
18568;SDS011;14780;48.316;-1.050;2022-12-18T15:58:49;5.65;;;3.40;;
18568;SDS011;14780;48.316;-1.050;2022-12-18T16:01:34;5.97;;;3.65;;
18568;SDS011;14780;48.316;-1.050;2022-12-18T16:04:19;5.22;;;3.45;;
18568;SDS011;14780;48.316;-1.050;2022-12-18T16:07:05;5.05;;;3.70;;
18568;SDS011;14780;48.316;-1.050;2022-12-18T16:09:51;4.47;;;3.42;;
18568;SDS011;14780;48.316;-1.050;2022-12-18T16:12:36;5.13;;;3.75;;
18568;SDS011;14780;48.316;-1.050;2022-12-18T16:15:21;6.88;;;3.30;;
18568;SDS011;14780;48.316;-1.050;2022-12-18T16:18:06;6.20;;;3.30;;
18568;SDS011;14780;48.316;-1.050;2022-12-18T16:20:51;5.32;;;3.25;;
18568;SDS011;14780;48.316;-1.050;2022-12-18T16:23:36;7.28;;;3.40;;
18568;SDS011;14780;48.316;-1.050;2022-12-18T16:26:20;4.80;;;3.30;;
18568;SDS011;14780;48.316;-1.050;2022-12-18T16:29:05;4.40;;;3.17;;
18568;SDS011;14780;48.316;-1.050;2022-12-18T16:31:50;4.22;;;3.10;;
18568;SDS011;14780;48.316;-1.050;2022-12-18T16:34:35;5.05;;;3.60;;
18568;SDS011;14780;48.316;-1.050;2022-12-18T16:37:20;4.05;;;3.30;;
18568;SDS011;14780;48.316;-1.050;2022-12-18T16:40:05;4.90;;;3.00;;
18568;SDS011;14780;48.316;-1.050;2022-12-18T16:42:52;5.78;;;3.38;;
18568;SDS011;14780;48.316;-1.050;2022-12-18T16:45:36;6.30;;;3.40;;
18568;SDS011;14780;48.316;-1.050;2022-12-18T16:48:21;5.47;;;3.30;;
18568;SDS011;14780;48.316;-1.050;2022-12-18T16:51:06;4.72;;;3.30;;
18568;SDS011;14780;48.316;-1.050;2022-12-18T16:53:51;4.97;;;3.10;;
18568;SDS011;14780;48.316;-1.050;2022-12-18T16:56:39;3.97;;;3.05;;
18568;SDS011;14780;48.316;-1.050;2022-12-18T16:59:25;5.47;;;3.22;;
18568;SDS011;14780;48.316;-1.050;2022-12-18T17:02:12;6.93;;;3.33;;
18568;SDS011;14780;48.316;-1.050;2022-12-18T17:04:58;6.00;;;3.47;;
18568;SDS011;14780;48.316;-1.050;2022-12-18T17:07:43;4.88;;;3.47;;
18568;SDS011;14780;48.316;-1.050;2022-12-18T17:10:28;6.03;;;3.22;;
18568;SDS011;14780;48.316;-1.050;2022-12-18T17:13:13;4.85;;;3.13;;
18568;SDS011;14780;48.316;-1.050;2022-12-18T17:16:04;5.95;;;3.20;;
18568;SDS011;14780;48.316;-1.050;2022-12-18T17:18:51;4.47;;;3.13;;
18568;SDS011;14780;48.316;-1.050;2022-12-18T17:21:36;4.63;;;2.85;;
18568;SDS011;14780;48.316;-1.050;2022-12-18T17:24:21;4.85;;;2.92;;
18568;SDS011;14780;48.316;-1.050;2022-12-18T17:27:06;4.45;;;3.28;;
18568;SDS011;14780;48.316;-1.050;2022-12-18T17:29:51;5.88;;;3.22;;
18568;SDS011;14780;48.316;-1.050;2022-12-18T17:32:37;4.55;;;3.17;;
18568;SDS011;14780;48.316;-1.050;2022-12-18T17:35:21;6.15;;;3.22;;
18568;SDS011;14780;48.316;-1.050;2022-12-18T17:38:06;5.13;;;2.80;;
18568;SDS011;14780;48.316;-1.050;2022-12-18T17:40:51;4.53;;;3.03;;
18568;SDS011;14780;48.316;-1.050;2022-12-18T17:43:36;4.05;;;2.85;;
18568;SDS011;14780;48.316;-1.050;2022-12-18T17:46:31;3.47;;;2.53;;
18568;SDS011;14780;48.316;-1.050;2022-12-18T17:49:17;4.28;;;3.15;;
18568;SDS011;14780;48.316;-1.050;2022-12-18T17:52:01;7.28;;;3.05;;
18568;SDS011;14780;48.316;-1.050;2022-12-18T17:54:46;4.85;;;3.22;;
18568;SDS011;14780;48.316;-1.050;2022-12-18T17:57:31;5.07;;;2.83;;
18568;SDS011;14780;48.316;-1.050;2022-12-18T18:00:16;4.55;;;3.05;;
18568;SDS011;14780;48.316;-1.050;2022-12-18T18:03:01;4.53;;;2.95;;
18568;SDS011;14780;48.316;-1.050;2022-12-18T18:05:46;13.48;;;3.10;;
18568;SDS011;14780;48.316;-1.050;2022-12-18T18:08:30;7.13;;;3.20;;
18568;SDS011;14780;48.316;-1.050;2022-12-18T18:11:17;6.05;;;3.15;;
18568;SDS011;14780;48.316;-1.050;2022-12-18T18:14:22;4.25;;;3.00;;
18568;SDS011;14780;48.316;-1.050;2022-12-18T18:17:08;4.32;;;2.88;;
18568;SDS011;14780;48.316;-1.050;2022-12-18T18:19:52;3.80;;;2.70;;
18568;SDS011;14780;48.316;-1.050;2022-12-18T18:22:37;4.30;;;3.13;;
18568;SDS011;14780;48.316;-1.050;2022-12-18T18:25:21;6.18;;;3.22;;
18568;SDS011;14780;48.316;-1.050;2022-12-18T18:28:06;4.13;;;2.97;;
18568;SDS011;14780;48.316;-1.050;2022-12-18T18:30:51;5.88;;;3.10;;
18568;SDS011;14780;48.316;-1.050;2022-12-18T18:33:36;6.00;;;3.05;;
18568;SDS011;14780;48.316;-1.050;2022-12-18T18:36:21;3.80;;;2.72;;